createdAt,value
2022-08-26T00:07:37.934Z,98532.54
2022-08-26T00:18:22.073Z,98518.56
2022-08-26T00:28:51.584Z,98516.95
2022-08-26T00:39:22.762Z,98516.80
2022-08-26T00:49:53.113Z,98519.58
2022-08-26T01:00:26.066Z,98514.27
2022-08-26T01:10:55.771Z,98509.60
2022-08-26T01:21:31.119Z,98508.05
2022-08-26T01:32:00.893Z,98512.66
2022-08-26T01:42:30.150Z,98512.41
2022-08-26T01:53:02.685Z,98509.98
2022-08-26T02:03:32.367Z,98507.84
2022-08-26T02:14:06.028Z,98506.61
2022-08-26T02:24:50.853Z,98510.81
2022-08-26T02:35:23.005Z,98508.99
2022-08-26T02:45:52.077Z,98507.80
2022-08-26T02:56:21.339Z,98505.21
2022-08-26T03:06:52.984Z,98503.61
2022-08-26T03:17:22.013Z,98497.23
2022-08-26T03:27:51.092Z,98502.23
2022-08-26T03:38:20.825Z,98501.05
2022-08-26T03:48:49.905Z,98502.33
2022-08-26T03:59:18.891Z,98495.71
2022-08-26T04:09:48.003Z,98492.58
2022-08-26T04:20:18.646Z,98484.40
2022-08-26T04:30:47.663Z,98481.85
2022-08-26T04:41:16.847Z,98481.98
2022-08-26T04:51:46.322Z,98480.84
2022-08-26T05:02:16.125Z,98481.27
2022-08-26T05:12:44.924Z,98480.21
2022-08-26T05:23:14.099Z,98479.13
2022-08-26T05:33:43.747Z,98475.16
2022-08-26T05:44:15.220Z,98483.65
2022-08-26T05:54:45.271Z,98477.89
2022-08-26T06:05:16.576Z,98469.27
2022-08-26T06:15:48.340Z,98465.15
2022-08-26T06:26:18.418Z,98470.11
2022-08-26T06:36:47.653Z,98468.64
2022-08-26T06:47:16.528Z,98470.10
2022-08-26T06:57:45.436Z,98465.83
2022-08-26T07:08:15.047Z,98473.59
2022-08-26T07:18:45.431Z,98479.20
2022-08-26T07:29:17.220Z,98483.25
2022-08-26T07:39:46.534Z,98477.53
2022-08-26T07:50:15.865Z,98475.26
2022-08-26T08:00:45.191Z,98480.16
2022-08-26T08:11:14.491Z,98471.87
2022-08-26T08:21:43.571Z,98468.36
2022-08-26T08:32:15.463Z,98460.48
2022-08-26T08:53:23.057Z,98456.30
2022-08-26T09:03:59.589Z,98448.19
2022-08-26T09:14:30.879Z,98438.78
2022-08-26T09:25:00.502Z,98433.27
2022-08-26T09:35:33.654Z,98422.46
2022-08-26T09:46:19.464Z,98417.08
2022-08-26T09:56:48.696Z,98409.15
2022-08-26T10:07:34.196Z,98404.89
2022-08-26T10:18:11.403Z,98394.91
2022-08-26T10:28:45.450Z,98390.13
2022-08-26T10:39:21.504Z,98380.23
2022-08-26T10:49:58.718Z,98373.63
2022-08-26T11:00:55.860Z,98366.16
2022-08-26T11:11:49.767Z,98362.71
2022-08-26T11:22:29.770Z,98347.62
2022-08-26T11:33:00.498Z,98340.05
2022-08-26T11:43:30.631Z,98326.29
2022-08-26T11:54:15.822Z,98319.11
2022-08-26T12:04:44.731Z,98307.97
2022-08-26T12:15:20.131Z,98294.16
2022-08-26T12:25:50.983Z,98286.48
2022-08-26T12:36:24.714Z,98285.79
2022-08-26T12:46:53.794Z,98288.14
2022-08-26T12:57:29.787Z,98284.23
2022-08-26T13:08:17.119Z,98277.70
2022-08-26T13:18:46.251Z,98266.89
2022-08-26T13:29:15.555Z,98253.02
2022-08-26T13:39:44.528Z,98248.84
2022-08-26T13:50:13.830Z,98239.65
2022-08-26T14:00:43.339Z,98237.20
2022-08-26T14:11:12.443Z,98229.84
2022-08-26T14:21:42.136Z,98227.01
2022-08-26T14:32:15.481Z,98233.36
2022-08-26T14:42:49.187Z,98229.16
2022-08-26T14:53:39.096Z,98227.98
2022-08-26T15:04:08.476Z,98226.09
2022-08-26T15:14:37.546Z,98224.30
2022-08-26T15:25:08.150Z,98228.20
2022-08-26T15:35:40.267Z,98222.27
2022-08-26T15:46:15.390Z,98218.66
2022-08-26T15:56:47.978Z,98220.47
2022-08-26T16:07:17.019Z,98223.66
2022-08-26T16:17:46.107Z,98210.02
2022-08-26T16:28:15.940Z,98201.06
2022-08-26T16:38:56.738Z,98189.87
2022-08-26T16:49:25.871Z,98175.60
2022-08-26T16:59:54.803Z,98168.08
2022-08-26T17:10:24.904Z,98164.12
2022-08-26T17:20:54.955Z,98158.19
2022-08-26T17:31:24.912Z,98155.19
2022-08-26T17:41:54.017Z,98152.46
2022-08-26T17:52:23.026Z,98156.21
2022-08-26T18:02:52.072Z,98159.53
2022-08-26T18:13:21.762Z,98167.67
2022-08-26T18:23:51.600Z,98182.88
2022-08-26T18:34:21.334Z,98183.12
2022-08-26T18:44:53.225Z,98180.77
2022-08-26T18:55:22.587Z,98180.34
2022-08-26T19:05:54.452Z,98185.59
2022-08-26T19:16:28.223Z,98183.60
2022-08-26T19:26:59.415Z,98188.13
2022-08-26T19:37:28.920Z,98196.38
2022-08-26T19:47:59.193Z,98199.48
2022-08-26T19:58:28.388Z,98208.22
2022-08-26T20:08:57.979Z,98216.52
2022-08-26T20:19:45.240Z,98218.34
2022-08-26T20:30:16.203Z,98226.39
2022-08-26T20:40:45.941Z,98222.78
2022-08-26T20:51:15.125Z,98226.23
2022-08-26T21:01:45.467Z,98237.95
2022-08-26T21:12:14.517Z,98233.27
2022-08-26T21:22:43.612Z,98237.23
2022-08-26T21:33:12.621Z,98235.15
2022-08-26T21:43:42.619Z,98236.27
2022-08-26T21:54:13.099Z,98224.37
2022-08-26T22:04:44.595Z,98218.95
2022-08-26T22:15:20.110Z,98211.45
2022-08-26T22:25:49.791Z,98199.25
2022-08-26T22:36:24.762Z,98198.68
2022-08-26T22:46:55.898Z,98199.06
2022-08-26T22:57:24.880Z,98205.05
2022-08-26T23:07:54.371Z,98205.02
2022-08-26T23:18:23.431Z,98198.38
2022-08-26T23:28:53.705Z,98188.60
2022-08-26T23:39:23.093Z,98190.06
2022-08-26T23:49:52.055Z,98181.80
